sensor_id;sensor_type;location;lat;lon;timestamp;P1;durP1;ratioP1;P2;durP2;ratioP2
20462;SDS011;10390;53.566;9.980;2022-11-20T00:01:30;12.77;;;9.70;;
20462;SDS011;10390;53.566;9.980;2022-11-20T00:03:56;14.52;;;9.88;;
20462;SDS011;10390;53.566;9.980;2022-11-20T00:06:23;13.88;;;9.57;;
20462;SDS011;10390;53.566;9.980;2022-11-20T00:08:50;11.88;;;9.32;;
20462;SDS011;10390;53.566;9.980;2022-11-20T00:11:17;10.73;;;8.90;;
20462;SDS011;10390;53.566;9.980;2022-11-20T00:13:46;13.13;;;9.25;;
20462;SDS011;10390;53.566;9.980;2022-11-20T00:16:17;12.00;;;9.20;;
20462;SDS011;10390;53.566;9.980;2022-11-20T00:18:45;12.38;;;8.85;;
20462;SDS011;10390;53.566;9.980;2022-11-20T00:21:13;12.27;;;8.95;;
20462;SDS011;10390;53.566;9.980;2022-11-20T00:23:44;11.32;;;8.73;;
20462;SDS011;10390;53.566;9.980;2022-11-20T00:26:11;13.35;;;9.50;;
20462;SDS011;10390;53.566;9.980;2022-11-20T00:28:41;12.18;;;8.73;;
20462;SDS011;10390;53.566;9.980;2022-11-20T00:31:09;14.57;;;8.73;;
20462;SDS011;10390;53.566;9.980;2022-11-20T00:33:40;13.25;;;8.40;;
20462;SDS011;10390;53.566;9.980;2022-11-20T00:36:09;12.57;;;8.88;;
20462;SDS011;10390;53.566;9.980;2022-11-20T00:38:39;11.52;;;8.80;;
20462;SDS011;10390;53.566;9.980;2022-11-20T00:41:09;9.88;;;7.82;;
20462;SDS011;10390;53.566;9.980;2022-11-20T00:43:37;10.82;;;7.85;;
20462;SDS011;10390;53.566;9.980;2022-11-20T00:46:05;12.02;;;9.02;;
20462;SDS011;10390;53.566;9.980;2022-11-20T00:48:35;11.13;;;8.10;;
20462;SDS011;10390;53.566;9.980;2022-11-20T00:51:01;11.82;;;8.15;;
20462;SDS011;10390;53.566;9.980;2022-11-20T00:53:27;11.02;;;8.35;;
20462;SDS011;10390;53.566;9.980;2022-11-20T00:55:53;10.57;;;7.85;;
20462;SDS011;10390;53.566;9.980;2022-11-20T00:58:35;11.50;;;8.23;;
20462;SDS011;10390;53.566;9.980;2022-11-20T01:03:32;9.85;;;7.78;;
20462;SDS011;10390;53.566;9.980;2022-11-20T01:06:03;11.98;;;8.25;;
20462;SDS011;10390;53.566;9.980;2022-11-20T01:08:33;10.95;;;8.18;;
20462;SDS011;10390;53.566;9.980;2022-11-20T01:11:10;10.60;;;8.15;;
20462;SDS011;10390;53.566;9.980;2022-11-20T01:13:42;11.20;;;7.18;;
20462;SDS011;10390;53.566;9.980;2022-11-20T01:16:11;8.95;;;7.15;;
20462;SDS011;10390;53.566;9.980;2022-11-20T01:18:59;10.75;;;7.80;;
20462;SDS011;10390;53.566;9.980;2022-11-20T01:21:29;10.07;;;7.80;;
20462;SDS011;10390;53.566;9.980;2022-11-20T01:23:59;11.70;;;7.78;;
20462;SDS011;10390;53.566;9.980;2022-11-20T01:26:27;11.38;;;7.90;;
20462;SDS011;10390;53.566;9.980;2022-11-20T01:28:56;10.15;;;7.53;;
20462;SDS011;10390;53.566;9.980;2022-11-20T01:31:33;11.00;;;7.53;;
20462;SDS011;10390;53.566;9.980;2022-11-20T01:34:02;9.30;;;7.25;;
20462;SDS011;10390;53.566;9.980;2022-11-20T01:36:30;10.55;;;7.53;;
20462;SDS011;10390;53.566;9.980;2022-11-20T01:38:59;10.82;;;7.50;;
20462;SDS011;10390;53.566;9.980;2022-11-20T01:41:28;10.20;;;7.15;;
20462;SDS011;10390;53.566;9.980;2022-11-20T01:44:16;10.25;;;7.70;;
20462;SDS011;10390;53.566;9.980;2022-11-20T01:46:56;10.15;;;6.90;;
20462;SDS011;10390;53.566;9.980;2022-11-20T01:49:50;8.23;;;6.40;;
20462;SDS011;10390;53.566;9.980;2022-11-20T01:52:27;9.07;;;7.18;;
20462;SDS011;10390;53.566;9.980;2022-11-20T01:55:07;9.68;;;7.43;;
20462;SDS011;10390;53.566;9.980;2022-11-20T01:57:38;9.13;;;7.20;;
20462;SDS011;10390;53.566;9.980;2022-11-20T02:00:07;10.50;;;7.13;;
20462;SDS011;10390;53.566;9.980;2022-11-20T02:02:37;9.13;;;6.80;;
20462;SDS011;10390;53.566;9.980;2022-11-20T02:05:13;8.27;;;6.50;;
20462;SDS011;10390;53.566;9.980;2022-11-20T02:08:06;10.20;;;6.90;;
20462;SDS011;10390;53.566;9.980;2022-11-20T02:10:32;10.07;;;6.93;;
20462;SDS011;10390;53.566;9.980;2022-11-20T02:12:58;10.50;;;6.57;;
20462;SDS011;10390;53.566;9.980;2022-11-20T02:15:44;8.82;;;7.13;;
20462;SDS011;10390;53.566;9.980;2022-11-20T02:18:11;9.65;;;6.90;;
20462;SDS011;10390;53.566;9.980;2022-11-20T02:20:40;9.68;;;6.80;;
20462;SDS011;10390;53.566;9.980;2022-11-20T02:23:14;8.60;;;6.40;;
20462;SDS011;10390;53.566;9.980;2022-11-20T02:25:58;9.00;;;6.90;;
20462;SDS011;10390;53.566;9.980;2022-11-20T02:28:27;9.38;;;6.20;;
20462;SDS011;10390;53.566;9.980;2022-11-20T02:30:53;8.50;;;6.28;;
20462;SDS011;10390;53.566;9.980;2022-11-20T02:33:19;9.57;;;6.63;;
20462;SDS011;10390;53.566;9.980;2022-11-20T02:35:45;8.15;;;6.40;;
20462;SDS011;10390;53.566;9.980;2022-11-20T02:38:12;9.20;;;6.38;;
20462;SDS011;10390;53.566;9.980;2022-11-20T02:40:39;9.52;;;6.65;;
20462;SDS011;10390;53.566;9.980;2022-11-20T02:43:05;8.13;;;5.88;;
20462;SDS011;10390;53.566;9.980;2022-11-20T02:45:31;9.05;;;6.50;;
20462;SDS011;10390;53.566;9.980;2022-11-20T02:47:57;8.18;;;6.40;;
20462;SDS011;10390;53.566;9.980;2022-11-20T02:50:23;7.75;;;6.28;;
20462;SDS011;10390;53.566;9.980;2022-11-20T02:52:49;7.95;;;5.97;;
20462;SDS011;10390;53.566;9.980;2022-11-20T02:55:14;8.32;;;6.15;;
20462;SDS011;10390;53.566;9.980;2022-11-20T02:57:40;9.10;;;6.57;;
20462;SDS011;10390;53.566;9.980;2022-11-20T03:00:06;8.82;;;6.40;;
20462;SDS011;10390;53.566;9.980;2022-11-20T03:02:33;9.18;;;6.60;;
20462;SDS011;10390;53.566;9.980;2022-11-20T03:04:59;8.80;;;6.15;;
20462;SDS011;10390;53.566;9.980;2022-11-20T03:07:25;8.45;;;6.15;;
20462;SDS011;10390;53.566;9.980;2022-11-20T03:09:50;8.60;;;6.63;;
20462;SDS011;10390;53.566;9.980;2022-11-20T03:12:16;8.23;;;6.35;;
20462;SDS011;10390;53.566;9.980;2022-11-20T03:14:42;9.65;;;6.82;;
20462;SDS011;10390;53.566;9.980;2022-11-20T03:17:07;7.32;;;6.20;;
20462;SDS011;10390;53.566;9.980;2022-11-20T03:19:34;8.48;;;5.75;;
20462;SDS011;10390;53.566;9.980;2022-11-20T03:22:00;7.85;;;6.43;;
20462;SDS011;10390;53.566;9.980;2022-11-20T03:24:26;9.10;;;6.22;;
20462;SDS011;10390;53.566;9.980;2022-11-20T03:26:52;7.45;;;5.93;;
20462;SDS011;10390;53.566;9.980;2022-11-20T03:29:17;8.75;;;5.70;;
20462;SDS011;10390;53.566;9.980;2022-11-20T03:31:43;8.63;;;5.80;;
20462;SDS011;10390;53.566;9.980;2022-11-20T03:34:10;8.05;;;6.05;;
20462;SDS011;10390;53.566;9.980;2022-11-20T03:36:39;8.02;;;5.97;;
20462;SDS011;10390;53.566;9.980;2022-11-20T03:39:07;7.15;;;5.75;;
20462;SDS011;10390;53.566;9.980;2022-11-20T03:41:37;6.82;;;5.50;;
20462;SDS011;10390;53.566;9.980;2022-11-20T03:44:06;7.93;;;6.25;;
20462;SDS011;10390;53.566;9.980;2022-11-20T03:46:34;8.27;;;6.00;;
20462;SDS011;10390;53.566;9.980;2022-11-20T03:49:00;8.65;;;5.90;;
20462;SDS011;10390;53.566;9.980;2022-11-20T03:51:27;8.13;;;5.60;;
20462;SDS011;10390;53.566;9.980;2022-11-20T03:54:02;7.60;;;5.85;;
20462;SDS011;10390;53.566;9.980;2022-11-20T03:56:32;8.15;;;5.47;;
20462;SDS011;10390;53.566;9.980;2022-11-20T03:59:00;6.82;;;5.20;;
20462;SDS011;10390;53.566;9.980;2022-11-20T04:01:31;8.32;;;5.63;;
20462;SDS011;10390;53.566;9.980;2022-11-20T04:03:59;8.05;;;5.80;;
20462;SDS011;10390;53.566;9.980;2022-11-20T04:06:27;7.25;;;5.40;;
20462;SDS011;10390;53.566;9.980;2022-11-20T04:08:58;8.50;;;5.10;;
20462;SDS011;10390;53.566;9.980;2022-11-20T04:11:28;7.85;;;5.60;;
20462;SDS011;10390;53.566;9.980;2022-11-20T04:13:57;6.60;;;5.38;;
20462;SDS011;10390;53.566;9.980;2022-11-20T04:16:33;7.00;;;5.45;;
20462;SDS011;10390;53.566;9.980;2022-11-20T04:19:01;6.82;;;5.18;;
20462;SDS011;10390;53.566;9.980;2022-11-20T04:21:30;6.70;;;5.28;;
20462;SDS011;10390;53.566;9.980;2022-11-20T04:23:56;7.00;;;4.55;;
20462;SDS011;10390;53.566;9.980;2022-11-20T04:26:23;6.15;;;5.10;;
20462;SDS011;10390;53.566;9.980;2022-11-20T04:28:51;6.68;;;5.10;;
20462;SDS011;10390;53.566;9.980;2022-11-20T04:31:18;7.43;;;5.35;;
20462;SDS011;10390;53.566;9.980;2022-11-20T04:33:49;7.47;;;5.35;;
20462;SDS011;10390;53.566;9.980;2022-11-20T04:36:16;6.97;;;5.20;;
20462;SDS011;10390;53.566;9.980;2022-11-20T04:38:44;6.50;;;4.95;;
20462;SDS011;10390;53.566;9.980;2022-11-20T04:41:19;6.30;;;5.10;;
20462;SDS011;10390;53.566;9.980;2022-11-20T04:43:50;6.82;;;5.28;;
20462;SDS011;10390;53.566;9.980;2022-11-20T04:46:23;6.40;;;5.00;;
20462;SDS011;10390;53.566;9.980;2022-11-20T04:48:50;7.05;;;4.55;;
20462;SDS011;10390;53.566;9.980;2022-11-20T04:51:16;6.97;;;5.00;;
20462;SDS011;10390;53.566;9.980;2022-11-20T04:53:42;7.15;;;5.03;;
20462;SDS011;10390;53.566;9.980;2022-11-20T04:56:08;6.57;;;4.95;;
20462;SDS011;10390;53.566;9.980;2022-11-20T04:58:37;6.00;;;4.72;;
20462;SDS011;10390;53.566;9.980;2022-11-20T05:01:13;6.03;;;4.60;;
20462;SDS011;10390;53.566;9.980;2022-11-20T05:03:45;6.35;;;4.93;;
20462;SDS011;10390;53.566;9.980;2022-11-20T05:06:12;6.07;;;4.50;;
20462;SDS011;10390;53.566;9.980;2022-11-20T05:08:46;7.22;;;4.78;;
20462;SDS011;10390;53.566;9.980;2022-11-20T05:11:13;6.03;;;4.40;;
20462;SDS011;10390;53.566;9.980;2022-11-20T05:13:42;6.65;;;4.55;;
20462;SDS011;10390;53.566;9.980;2022-11-20T05:16:12;6.68;;;4.70;;
20462;SDS011;10390;53.566;9.980;2022-11-20T05:18:45;6.28;;;4.75;;
20462;SDS011;10390;53.566;9.980;2022-11-20T05:21:14;5.68;;;4.50;;
20462;SDS011;10390;53.566;9.980;2022-11-20T05:23:40;8.27;;;4.80;;
20462;SDS011;10390;53.566;9.980;2022-11-20T05:26:08;5.97;;;4.40;;
20462;SDS011;10390;53.566;9.980;2022-11-20T05:28:44;5.93;;;4.30;;
20462;SDS011;10390;53.566;9.980;2022-11-20T05:31:14;5.80;;;4.43;;
20462;SDS011;10390;53.566;9.980;2022-11-20T05:33:44;5.65;;;4.20;;
20462;SDS011;10390;53.566;9.980;2022-11-20T05:36:11;6.20;;;4.75;;
20462;SDS011;10390;53.566;9.980;2022-11-20T05:38:38;6.63;;;4.53;;
20462;SDS011;10390;53.566;9.980;2022-11-20T05:41:08;6.68;;;4.72;;
20462;SDS011;10390;53.566;9.980;2022-11-20T05:43:40;5.97;;;4.10;;
20462;SDS011;10390;53.566;9.980;2022-11-20T05:46:08;6.70;;;4.40;;
20462;SDS011;10390;53.566;9.980;2022-11-20T05:48:37;6.22;;;4.63;;
20462;SDS011;10390;53.566;9.980;2022-11-20T05:51:06;5.72;;;4.35;;
20462;SDS011;10390;53.566;9.980;2022-11-20T05:53:35;6.00;;;4.80;;
20462;SDS011;10390;53.566;9.980;2022-11-20T05:56:05;6.50;;;3.85;;
20462;SDS011;10390;53.566;9.980;2022-11-20T05:58:34;5.82;;;4.28;;
20462;SDS011;10390;53.566;9.980;2022-11-20T06:03:31;6.18;;;4.50;;
20462;SDS011;10390;53.566;9.980;2022-11-20T06:06:01;5.80;;;3.97;;
20462;SDS011;10390;53.566;9.980;2022-11-20T06:08:28;5.32;;;3.90;;
20462;SDS011;10390;53.566;9.980;2022-11-20T06:10:54;7.10;;;4.10;;
20462;SDS011;10390;53.566;9.980;2022-11-20T06:13:19;5.80;;;4.32;;
20462;SDS011;10390;53.566;9.980;2022-11-20T06:15:51;5.90;;;4.45;;
20462;SDS011;10390;53.566;9.980;2022-11-20T06:18:18;6.75;;;4.10;;
20462;SDS011;10390;53.566;9.980;2022-11-20T06:20:45;7.65;;;4.20;;
20462;SDS011;10390;53.566;9.980;2022-11-20T06:23:11;6.05;;;4.32;;
20462;SDS011;10390;53.566;9.980;2022-11-20T06:25:41;6.50;;;4.35;;
20462;SDS011;10390;53.566;9.980;2022-11-20T06:28:07;6.22;;;4.47;;
20462;SDS011;10390;53.566;9.980;2022-11-20T06:30:34;5.65;;;4.20;;
20462;SDS011;10390;53.566;9.980;2022-11-20T06:33:00;5.25;;;3.90;;
20462;SDS011;10390;53.566;9.980;2022-11-20T06:35:26;5.38;;;4.30;;
20462;SDS011;10390;53.566;9.980;2022-11-20T06:37:52;6.45;;;4.05;;
20462;SDS011;10390;53.566;9.980;2022-11-20T06:40:18;5.57;;;3.92;;
20462;SDS011;10390;53.566;9.980;2022-11-20T06:42:44;6.32;;;4.32;;
20462;SDS011;10390;53.566;9.980;2022-11-20T06:45:09;5.65;;;4.00;;
20462;SDS011;10390;53.566;9.980;2022-11-20T06:47:35;6.43;;;4.25;;
20462;SDS011;10390;53.566;9.980;2022-11-20T06:50:01;6.50;;;4.38;;
20462;SDS011;10390;53.566;9.980;2022-11-20T06:52:27;8.57;;;4.20;;
20462;SDS011;10390;53.566;9.980;2022-11-20T06:54:53;6.28;;;4.00;;
20462;SDS011;10390;53.566;9.980;2022-11-20T06:57:18;5.15;;;4.07;;
20462;SDS011;10390;53.566;9.980;2022-11-20T06:59:44;5.47;;;4.40;;
20462;SDS011;10390;53.566;9.980;2022-11-20T07:02:10;5.10;;;3.70;;
20462;SDS011;10390;53.566;9.980;2022-11-20T07:04:37;5.20;;;4.13;;
20462;SDS011;10390;53.566;9.980;2022-11-20T07:07:03;6.70;;;4.40;;
20462;SDS011;10390;53.566;9.980;2022-11-20T07:09:29;7.93;;;4.15;;
20462;SDS011;10390;53.566;9.980;2022-11-20T07:11:55;5.82;;;3.80;;
20462;SDS011;10390;53.566;9.980;2022-11-20T07:14:20;5.18;;;3.90;;
20462;SDS011;10390;53.566;9.980;2022-11-20T07:16:46;6.82;;;3.92;;
20462;SDS011;10390;53.566;9.980;2022-11-20T07:19:12;6.38;;;4.03;;
20462;SDS011;10390;53.566;9.980;2022-11-20T07:21:38;5.68;;;3.70;;
20462;SDS011;10390;53.566;9.980;2022-11-20T07:24:03;5.72;;;3.70;;
20462;SDS011;10390;53.566;9.980;2022-11-20T07:26:29;5.43;;;4.15;;
20462;SDS011;10390;53.566;9.980;2022-11-20T07:28:55;5.50;;;4.00;;
20462;SDS011;10390;53.566;9.980;2022-11-20T07:31:21;5.82;;;3.83;;
20462;SDS011;10390;53.566;9.980;2022-11-20T07:33:47;4.43;;;3.20;;
20462;SDS011;10390;53.566;9.980;2022-11-20T07:36:12;6.38;;;3.70;;
20462;SDS011;10390;53.566;9.980;2022-11-20T07:38:38;5.45;;;3.88;;
20462;SDS011;10390;53.566;9.980;2022-11-20T07:41:04;4.82;;;3.70;;
20462;SDS011;10390;53.566;9.980;2022-11-20T07:43:30;5.03;;;3.30;;
20462;SDS011;10390;53.566;9.980;2022-11-20T07:45:56;6.22;;;4.20;;
20462;SDS011;10390;53.566;9.980;2022-11-20T07:48:23;5.43;;;3.75;;
20462;SDS011;10390;53.566;9.980;2022-11-20T07:50:52;5.90;;;3.80;;
20462;SDS011;10390;53.566;9.980;2022-11-20T07:53:19;6.60;;;3.78;;
20462;SDS011;10390;53.566;9.980;2022-11-20T07:55:46;4.72;;;3.80;;
20462;SDS011;10390;53.566;9.980;2022-11-20T07:58:13;5.00;;;3.40;;
20462;SDS011;10390;53.566;9.980;2022-11-20T08:00:39;4.80;;;3.75;;
20462;SDS011;10390;53.566;9.980;2022-11-20T08:03:06;4.90;;;3.72;;
20462;SDS011;10390;53.566;9.980;2022-11-20T08:05:32;4.55;;;3.60;;
20462;SDS011;10390;53.566;9.980;2022-11-20T08:07:58;6.65;;;4.07;;
20462;SDS011;10390;53.566;9.980;2022-11-20T08:10:24;5.32;;;3.78;;
20462;SDS011;10390;53.566;9.980;2022-11-20T08:12:50;4.78;;;3.70;;
20462;SDS011;10390;53.566;9.980;2022-11-20T08:15:36;5.35;;;3.60;;
20462;SDS011;10390;53.566;9.980;2022-11-20T08:18:05;4.63;;;3.58;;
20462;SDS011;10390;53.566;9.980;2022-11-20T08:20:34;5.25;;;3.88;;
20462;SDS011;10390;53.566;9.980;2022-11-20T08:23:00;5.25;;;3.72;;
20462;SDS011;10390;53.566;9.980;2022-11-20T08:25:30;7.55;;;3.60;;
20462;SDS011;10390;53.566;9.980;2022-11-20T08:28:00;4.97;;;3.85;;
20462;SDS011;10390;53.566;9.980;2022-11-20T08:30:29;4.57;;;3.63;;
20462;SDS011;10390;53.566;9.980;2022-11-20T08:33:00;5.07;;;3.55;;
20462;SDS011;10390;53.566;9.980;2022-11-20T08:35:33;4.50;;;3.40;;
20462;SDS011;10390;53.566;9.980;2022-11-20T08:38:03;5.22;;;3.67;;
20462;SDS011;10390;53.566;9.980;2022-11-20T08:40:30;4.72;;;3.40;;
20462;SDS011;10390;53.566;9.980;2022-11-20T08:42:57;4.72;;;3.22;;
20462;SDS011;10390;53.566;9.980;2022-11-20T08:45:23;4.50;;;3.38;;
20462;SDS011;10390;53.566;9.980;2022-11-20T08:47:49;4.47;;;3.20;;
20462;SDS011;10390;53.566;9.980;2022-11-20T08:50:15;5.32;;;3.63;;
20462;SDS011;10390;53.566;9.980;2022-11-20T08:52:42;5.53;;;3.53;;
20462;SDS011;10390;53.566;9.980;2022-11-20T08:55:09;4.70;;;3.45;;
20462;SDS011;10390;53.566;9.980;2022-11-20T08:57:36;6.03;;;3.50;;
20462;SDS011;10390;53.566;9.980;2022-11-20T09:00:03;7.03;;;3.58;;
20462;SDS011;10390;53.566;9.980;2022-11-20T09:02:32;5.78;;;3.97;;
20462;SDS011;10390;53.566;9.980;2022-11-20T09:04:57;5.32;;;3.70;;
20462;SDS011;10390;53.566;9.980;2022-11-20T09:07:23;6.45;;;4.05;;
20462;SDS011;10390;53.566;9.980;2022-11-20T09:09:49;5.43;;;3.72;;
20462;SDS011;10390;53.566;9.980;2022-11-20T09:12:15;6.35;;;3.72;;
20462;SDS011;10390;53.566;9.980;2022-11-20T09:14:40;5.75;;;3.55;;
20462;SDS011;10390;53.566;9.980;2022-11-20T09:17:06;7.05;;;3.65;;
20462;SDS011;10390;53.566;9.980;2022-11-20T09:19:32;6.35;;;3.60;;
20462;SDS011;10390;53.566;9.980;2022-11-20T09:22:00;6.70;;;3.38;;
20462;SDS011;10390;53.566;9.980;2022-11-20T09:24:26;6.35;;;3.92;;
20462;SDS011;10390;53.566;9.980;2022-11-20T09:26:53;5.35;;;3.47;;
20462;SDS011;10390;53.566;9.980;2022-11-20T09:29:18;4.78;;;3.53;;
20462;SDS011;10390;53.566;9.980;2022-11-20T09:31:44;5.25;;;3.50;;
20462;SDS011;10390;53.566;9.980;2022-11-20T09:34:10;5.03;;;3.35;;
20462;SDS011;10390;53.566;9.980;2022-11-20T09:36:35;4.65;;;3.60;;
20462;SDS011;10390;53.566;9.980;2022-11-20T09:39:01;5.93;;;3.33;;
20462;SDS011;10390;53.566;9.980;2022-11-20T09:41:32;5.32;;;3.35;;
20462;SDS011;10390;53.566;9.980;2022-11-20T09:44:31;5.05;;;3.33;;
20462;SDS011;10390;53.566;9.980;2022-11-20T09:53:16;5.13;;;3.10;;
20462;SDS011;10390;53.566;9.980;2022-11-20T09:56:09;5.45;;;3.22;;
20462;SDS011;10390;53.566;9.980;2022-11-20T09:58:47;4.40;;;3.63;;
20462;SDS011;10390;53.566;9.980;2022-11-20T10:01:17;7.25;;;3.63;;
20462;SDS011;10390;53.566;9.980;2022-11-20T10:06:34;6.07;;;3.50;;
20462;SDS011;10390;53.566;9.980;2022-11-20T10:11:49;7.65;;;3.50;;
20462;SDS011;10390;53.566;9.980;2022-11-20T10:14:42;4.40;;;3.15;;
20462;SDS011;10390;53.566;9.980;2022-11-20T10:17:30;5.22;;;3.50;;
20462;SDS011;10390;53.566;9.980;2022-11-20T10:26:04;4.82;;;3.25;;
20462;SDS011;10390;53.566;9.980;2022-11-20T10:31:40;6.30;;;3.67;;
20462;SDS011;10390;53.566;9.980;2022-11-20T10:37:23;4.80;;;3.55;;
20462;SDS011;10390;53.566;9.980;2022-11-20T10:42:51;6.25;;;3.42;;
20462;SDS011;10390;53.566;9.980;2022-11-20T10:48:24;7.18;;;4.82;;
20462;SDS011;10390;53.566;9.980;2022-11-20T10:50:57;5.90;;;4.07;;
20462;SDS011;10390;53.566;9.980;2022-11-20T10:53:48;5.45;;;4.07;;
20462;SDS011;10390;53.566;9.980;2022-11-20T10:56:42;7.55;;;5.38;;
20462;SDS011;10390;53.566;9.980;2022-11-20T11:02:00;9.02;;;6.70;;
20462;SDS011;10390;53.566;9.980;2022-11-20T11:04:35;10.25;;;7.80;;
20462;SDS011;10390;53.566;9.980;2022-11-20T11:07:10;10.15;;;8.15;;
20462;SDS011;10390;53.566;9.980;2022-11-20T11:09:44;12.05;;;7.57;;
20462;SDS011;10390;53.566;9.980;2022-11-20T11:12:18;10.15;;;6.60;;
20462;SDS011;10390;53.566;9.980;2022-11-20T11:14:47;9.60;;;7.07;;
20462;SDS011;10390;53.566;9.980;2022-11-20T11:17:23;8.93;;;6.85;;
20462;SDS011;10390;53.566;9.980;2022-11-20T11:20:00;8.25;;;6.10;;
20462;SDS011;10390;53.566;9.980;2022-11-20T11:22:54;7.85;;;4.30;;
20462;SDS011;10390;53.566;9.980;2022-11-20T11:25:34;7.82;;;6.20;;
20462;SDS011;10390;53.566;9.980;2022-11-20T11:28:18;9.93;;;6.72;;
20462;SDS011;10390;53.566;9.980;2022-11-20T11:30:48;11.68;;;9.07;;
20462;SDS011;10390;53.566;9.980;2022-11-20T11:36:01;11.48;;;8.00;;
20462;SDS011;10390;53.566;9.980;2022-11-20T11:38:32;9.80;;;7.28;;
20462;SDS011;10390;53.566;9.980;2022-11-20T11:41:08;12.05;;;8.50;;
20462;SDS011;10390;53.566;9.980;2022-11-20T11:43:49;12.85;;;9.75;;
20462;SDS011;10390;53.566;9.980;2022-11-20T11:46:40;14.00;;;10.05;;
20462;SDS011;10390;53.566;9.980;2022-11-20T11:49:18;16.60;;;11.98;;
20462;SDS011;10390;53.566;9.980;2022-11-20T11:52:02;20.88;;;15.13;;
20462;SDS011;10390;53.566;9.980;2022-11-20T12:00:21;33.72;;;25.98;;
20462;SDS011;10390;53.566;9.980;2022-11-20T12:05:40;20.52;;;14.93;;
20462;SDS011;10390;53.566;9.980;2022-11-20T12:08:19;36.67;;;25.75;;
20462;SDS011;10390;53.566;9.980;2022-11-20T12:14:14;38.20;;;28.17;;
20462;SDS011;10390;53.566;9.980;2022-11-20T12:16:49;35.58;;;26.23;;
20462;SDS011;10390;53.566;9.980;2022-11-20T12:19:15;38.92;;;28.55;;
20462;SDS011;10390;53.566;9.980;2022-11-20T12:21:49;45.97;;;33.65;;
20462;SDS011;10390;53.566;9.980;2022-11-20T12:30:24;31.83;;;22.75;;
20462;SDS011;10390;53.566;9.980;2022-11-20T12:36:27;22.33;;;16.30;;
20462;SDS011;10390;53.566;9.980;2022-11-20T12:44:57;24.02;;;17.58;;
20462;SDS011;10390;53.566;9.980;2022-11-20T12:56:33;28.55;;;20.10;;
20462;SDS011;10390;53.566;9.980;2022-11-20T12:59:32;36.92;;;27.95;;
20462;SDS011;10390;53.566;9.980;2022-11-20T13:08:36;40.20;;;29.33;;
20462;SDS011;10390;53.566;9.980;2022-11-20T13:17:00;38.90;;;27.75;;
20462;SDS011;10390;53.566;9.980;2022-11-20T13:19:36;38.40;;;26.80;;
20462;SDS011;10390;53.566;9.980;2022-11-20T13:22:03;37.65;;;27.38;;
20462;SDS011;10390;53.566;9.980;2022-11-20T13:24:31;21.52;;;15.80;;
20462;SDS011;10390;53.566;9.980;2022-11-20T13:29:40;31.90;;;23.65;;
20462;SDS011;10390;53.566;9.980;2022-11-20T13:34:55;26.90;;;19.55;;
20462;SDS011;10390;53.566;9.980;2022-11-20T13:37:31;28.95;;;18.65;;
20462;SDS011;10390;53.566;9.980;2022-11-20T13:42:44;23.83;;;17.40;;
20462;SDS011;10390;53.566;9.980;2022-11-20T13:47:52;21.50;;;16.25;;
20462;SDS011;10390;53.566;9.980;2022-11-20T13:50:19;22.52;;;16.48;;
20462;SDS011;10390;53.566;9.980;2022-11-20T13:53:16;23.17;;;17.08;;
20462;SDS011;10390;53.566;9.980;2022-11-20T14:02:32;22.25;;;16.45;;
20462;SDS011;10390;53.566;9.980;2022-11-20T14:04:58;20.83;;;15.77;;
20462;SDS011;10390;53.566;9.980;2022-11-20T14:07:31;22.05;;;15.45;;
20462;SDS011;10390;53.566;9.980;2022-11-20T14:10:03;19.75;;;14.77;;
20462;SDS011;10390;53.566;9.980;2022-11-20T14:12:31;20.00;;;15.52;;
20462;SDS011;10390;53.566;9.980;2022-11-20T14:14:59;20.08;;;14.52;;
20462;SDS011;10390;53.566;9.980;2022-11-20T14:20:03;16.90;;;12.55;;
20462;SDS011;10390;53.566;9.980;2022-11-20T14:22:32;17.88;;;12.63;;
20462;SDS011;10390;53.566;9.980;2022-11-20T14:25:03;16.92;;;12.48;;
20462;SDS011;10390;53.566;9.980;2022-11-20T14:27:50;16.70;;;11.52;;
20462;SDS011;10390;53.566;9.980;2022-11-20T14:30:23;16.70;;;11.50;;
20462;SDS011;10390;53.566;9.980;2022-11-20T14:33:11;22.52;;;13.52;;
20462;SDS011;10390;53.566;9.980;2022-11-20T14:35:49;16.50;;;10.85;;
20462;SDS011;10390;53.566;9.980;2022-11-20T14:38:25;15.65;;;11.57;;
20462;SDS011;10390;53.566;9.980;2022-11-20T14:40:53;18.08;;;12.15;;
20462;SDS011;10390;53.566;9.980;2022-11-20T14:43:23;20.45;;;13.93;;
20462;SDS011;10390;53.566;9.980;2022-11-20T14:45:55;17.48;;;11.98;;
20462;SDS011;10390;53.566;9.980;2022-11-20T14:48:41;16.60;;;11.65;;
20462;SDS011;10390;53.566;9.980;2022-11-20T14:51:57;18.52;;;12.57;;
20462;SDS011;10390;53.566;9.980;2022-11-20T14:54:08;14.27;;;10.05;;
20462;SDS011;10390;53.566;9.980;2022-11-20T14:56:35;14.82;;;10.77;;
20462;SDS011;10390;53.566;9.980;2022-11-20T14:59:01;18.85;;;11.85;;
20462;SDS011;10390;53.566;9.980;2022-11-20T15:01:29;16.20;;;11.40;;
20462;SDS011;10390;53.566;9.980;2022-11-20T15:04:06;17.02;;;11.80;;
20462;SDS011;10390;53.566;9.980;2022-11-20T15:06:36;20.27;;;13.45;;
20462;SDS011;10390;53.566;9.980;2022-11-20T15:09:18;17.77;;;12.90;;
20462;SDS011;10390;53.566;9.980;2022-11-20T15:12:17;16.70;;;12.00;;
20462;SDS011;10390;53.566;9.980;2022-11-20T15:14:49;15.88;;;11.63;;
20462;SDS011;10390;53.566;9.980;2022-11-20T15:17:15;14.20;;;10.35;;
20462;SDS011;10390;53.566;9.980;2022-11-20T15:19:41;14.85;;;10.20;;
20462;SDS011;10390;53.566;9.980;2022-11-20T15:22:11;17.02;;;11.68;;
20462;SDS011;10390;53.566;9.980;2022-11-20T15:24:44;13.48;;;8.75;;
20462;SDS011;10390;53.566;9.980;2022-11-20T15:27:10;16.20;;;12.07;;
20462;SDS011;10390;53.566;9.980;2022-11-20T15:29:36;17.58;;;13.20;;
20462;SDS011;10390;53.566;9.980;2022-11-20T15:32:02;20.55;;;13.77;;
20462;SDS011;10390;53.566;9.980;2022-11-20T15:34:28;17.85;;;13.25;;
20462;SDS011;10390;53.566;9.980;2022-11-20T15:36:54;17.23;;;12.68;;
20462;SDS011;10390;53.566;9.980;2022-11-20T15:39:20;15.98;;;11.45;;
20462;SDS011;10390;53.566;9.980;2022-11-20T15:41:46;17.00;;;12.00;;
20462;SDS011;10390;53.566;9.980;2022-11-20T15:44:12;17.70;;;12.38;;
20462;SDS011;10390;53.566;9.980;2022-11-20T15:46:39;14.30;;;9.88;;
20462;SDS011;10390;53.566;9.980;2022-11-20T15:49:15;15.50;;;10.85;;
20462;SDS011;10390;53.566;9.980;2022-11-20T15:51:44;15.68;;;10.15;;
20462;SDS011;10390;53.566;9.980;2022-11-20T15:54:13;16.35;;;10.70;;
20462;SDS011;10390;53.566;9.980;2022-11-20T15:56:48;15.95;;;10.23;;
20462;SDS011;10390;53.566;9.980;2022-11-20T15:59:17;16.15;;;10.40;;
20462;SDS011;10390;53.566;9.980;2022-11-20T16:01:44;16.63;;;10.55;;
20462;SDS011;10390;53.566;9.980;2022-11-20T16:04:11;15.73;;;10.55;;
20462;SDS011;10390;53.566;9.980;2022-11-20T16:06:39;13.38;;;9.57;;
20462;SDS011;10390;53.566;9.980;2022-11-20T16:09:06;14.05;;;9.55;;
20462;SDS011;10390;53.566;9.980;2022-11-20T16:11:32;14.80;;;10.23;;
20462;SDS011;10390;53.566;9.980;2022-11-20T16:14:01;16.17;;;10.73;;
20462;SDS011;10390;53.566;9.980;2022-11-20T16:16:47;14.38;;;10.35;;
20462;SDS011;10390;53.566;9.980;2022-11-20T16:19:13;16.67;;;11.27;;
20462;SDS011;10390;53.566;9.980;2022-11-20T16:21:39;16.77;;;11.73;;
20462;SDS011;10390;53.566;9.980;2022-11-20T16:24:06;17.73;;;12.25;;
20462;SDS011;10390;53.566;9.980;2022-11-20T16:26:37;16.30;;;11.50;;
20462;SDS011;10390;53.566;9.980;2022-11-20T16:29:04;17.33;;;11.23;;
20462;SDS011;10390;53.566;9.980;2022-11-20T16:31:31;16.35;;;11.48;;
20462;SDS011;10390;53.566;9.980;2022-11-20T16:34:04;16.73;;;11.63;;
20462;SDS011;10390;53.566;9.980;2022-11-20T16:36:32;14.98;;;10.80;;
20462;SDS011;10390;53.566;9.980;2022-11-20T16:38:58;15.75;;;10.20;;
20462;SDS011;10390;53.566;9.980;2022-11-20T16:41:28;15.18;;;10.65;;
20462;SDS011;10390;53.566;9.980;2022-11-20T16:43:57;14.23;;;9.50;;
20462;SDS011;10390;53.566;9.980;2022-11-20T16:46:27;14.02;;;10.18;;